createdAt,value
2023-02-03T13:31:40.157Z,90.93
2023-02-03T13:34:55.463Z,91.60
2023-02-03T13:38:12.113Z,84.05
2023-02-03T13:41:03.565Z,83.53
2023-02-03T13:43:46.171Z,80.97
2023-02-03T13:46:32.045Z,73.57
2023-02-03T13:49:06.046Z,68.07
2023-02-03T13:51:48.727Z,72.05
2023-02-03T13:54:45.398Z,63.10
2023-02-03T13:57:37.125Z,62.13
2023-02-03T14:00:45.588Z,62.25
2023-02-03T14:03:26.714Z,56.25
2023-02-03T14:06:04.207Z,58.75
2023-02-03T14:08:33.371Z,54.45
2023-02-03T14:11:39.097Z,48.60
2023-02-03T14:14:11.289Z,49.55
2023-02-03T14:16:49.151Z,45.80
2023-02-03T14:19:24.533Z,45.47
2023-02-03T14:22:03.807Z,52.67
2023-02-03T14:24:45.999Z,48.72
2023-02-03T14:27:31.415Z,48.25
2023-02-03T14:30:17.721Z,50.95
2023-02-03T14:33:03.928Z,48.80
2023-02-03T14:35:43.417Z,50.92
2023-02-03T14:38:16.844Z,44.92
2023-02-03T14:41:07.159Z,49.72
2023-02-03T14:44:10.165Z,46.45
2023-02-03T14:47:03.351Z,50.85
2023-02-03T14:50:05.658Z,49.85
2023-02-03T14:53:26.350Z,59.45
2023-02-03T14:56:55.505Z,53.72
2023-02-03T14:59:31.616Z,53.38
2023-02-03T15:02:16.384Z,51.40
2023-02-03T15:04:47.831Z,51.42
2023-02-03T15:07:38.388Z,58.42
2023-02-03T15:10:19.355Z,45.92
2023-02-03T15:12:57.305Z,54.10
2023-02-03T15:15:28.543Z,68.15
2023-02-03T15:18:01.954Z,46.15
2023-02-03T15:20:49.128Z,51.22
2023-02-03T15:23:31.399Z,52.25
2023-02-03T15:26:32.867Z,53.28
2023-02-03T15:29:08.137Z,52.10
2023-02-03T15:31:49.914Z,58.40
2023-02-03T15:34:42.709Z,51.30
2023-02-03T15:37:32.716Z,54.10
2023-02-03T15:40:16.402Z,48.75
2023-02-03T15:43:29.164Z,52.67
2023-02-03T15:46:29.681Z,50.17
2023-02-03T15:49:30.076Z,55.80
2023-02-03T15:52:20.269Z,47.17
2023-02-03T15:55:00.595Z,52.95
2023-02-03T15:57:35.506Z,44.97
2023-02-03T16:00:36.749Z,53.05
2023-02-03T16:03:37.506Z,48.70
2023-02-03T16:06:39.447Z,47.13
2023-02-03T16:09:40.807Z,52.45
2023-02-03T16:12:28.304Z,43.55
2023-02-03T16:15:00.690Z,51.08
2023-02-03T16:17:40.400Z,44.53
2023-02-03T16:20:15.849Z,42.72
2023-02-03T16:23:00.321Z,49.67
2023-02-03T16:25:34.025Z,44.75
2023-02-03T16:28:31.749Z,43.78
2023-02-03T16:34:38.989Z,41.17
2023-02-03T16:37:44.743Z,39.00
2023-02-03T16:40:36.639Z,46.58
2023-02-03T16:43:25.848Z,46.95
2023-02-03T16:46:18.712Z,47.45
2023-02-03T16:49:06.956Z,49.45
2023-02-03T16:51:44.106Z,42.63
2023-02-03T16:54:16.279Z,42.85
2023-02-03T16:56:45.652Z,44.75
2023-02-03T16:59:14.752Z,43.13
2023-02-03T17:01:44.096Z,45.42
2023-02-03T17:04:13.635Z,45.22
2023-02-03T17:06:45.116Z,49.45
2023-02-03T17:09:14.220Z,50.65
2023-02-03T17:11:43.312Z,55.75
2023-02-03T17:14:12.444Z,48.40
2023-02-03T17:16:41.571Z,47.05
2023-02-03T17:19:14.494Z,47.30
2023-02-03T17:21:43.620Z,47.70
2023-02-03T17:24:13.383Z,50.55
2023-02-03T17:26:42.516Z,47.28
2023-02-03T17:29:12.891Z,48.55
2023-02-03T17:31:42.461Z,57.42
2023-02-03T17:34:11.634Z,48.90
2023-02-03T17:36:40.732Z,45.03
2023-02-03T17:55:34.291Z,37.85
2023-02-03T17:58:03.522Z,40.08
2023-02-03T18:00:32.879Z,39.05
2023-02-03T18:03:02.328Z,39.20
2023-02-03T18:05:33.542Z,40.58
2023-02-03T18:08:09.009Z,39.20
2023-02-03T18:10:45.790Z,36.45
2023-02-03T18:13:14.937Z,44.38
2023-02-03T18:15:44.043Z,43.97
2023-02-03T18:18:13.180Z,45.70
2023-02-03T18:20:42.295Z,42.30
2023-02-03T18:23:11.486Z,38.65
2023-02-03T18:25:40.679Z,38.80
2023-02-03T18:28:09.836Z,39.15
2023-02-03T18:30:39.815Z,38.03
2023-02-03T18:33:09.044Z,43.15
2023-02-03T18:35:38.160Z,52.33
2023-02-03T18:38:08.632Z,47.10
2023-02-03T18:40:39.655Z,42.17
2023-02-03T18:43:08.930Z,41.60
2023-02-03T18:45:41.388Z,37.15
2023-02-03T18:48:11.261Z,37.63
2023-02-03T18:50:44.287Z,31.48
2023-02-03T18:53:13.470Z,33.22
2023-02-03T18:55:46.556Z,31.45
2023-02-03T18:58:16.021Z,31.73
2023-02-03T19:00:45.202Z,30.83
2023-02-03T19:03:14.377Z,29.15
2023-02-03T19:05:44.349Z,33.90
2023-02-03T19:08:14.335Z,29.17
2023-02-03T19:10:43.455Z,32.65
2023-02-03T19:13:13.435Z,32.42
2023-02-03T19:15:44.419Z,31.05
2023-02-03T19:18:13.556Z,31.45
2023-02-03T19:20:45.363Z,33.72
2023-02-03T19:23:14.984Z,34.75
2023-02-03T19:25:44.142Z,41.25
2023-02-03T19:28:20.066Z,41.40
2023-02-03T19:30:59.918Z,41.03
2023-02-03T19:33:32.131Z,38.78
2023-02-03T19:36:01.275Z,43.80
2023-02-03T19:38:30.368Z,39.33
2023-02-03T19:41:02.560Z,39.63
2023-02-03T19:43:34.700Z,41.17
2023-02-03T19:46:03.938Z,44.13
2023-02-03T19:48:33.271Z,38.38
2023-02-03T19:51:02.473Z,37.55
2023-02-03T19:53:31.616Z,35.00
2023-02-03T19:56:01.125Z,31.90
2023-02-03T19:58:31.676Z,35.40
2023-02-03T20:01:00.805Z,37.13
2023-02-03T20:03:30.000Z,49.33
2023-02-03T20:06:00.122Z,35.75
2023-02-03T20:08:30.176Z,34.50
2023-02-03T20:10:59.326Z,33.50
2023-02-03T20:13:28.465Z,30.50
2023-02-03T20:15:57.701Z,31.48
2023-02-03T20:18:27.335Z,34.80
2023-02-03T20:20:58.096Z,28.73
2023-02-03T20:23:27.573Z,29.42
2023-02-03T20:25:57.086Z,26.10
2023-02-03T20:28:28.582Z,26.55
2023-02-03T20:31:02.177Z,32.53
2023-02-03T20:33:32.247Z,28.50
2023-02-03T20:36:01.542Z,31.85
2023-02-03T20:38:30.720Z,27.52
2023-02-03T20:40:59.872Z,28.20
2023-02-03T20:43:30.088Z,29.20
2023-02-03T20:45:59.177Z,28.13
2023-02-03T20:48:29.229Z,27.50
2023-02-03T20:50:58.441Z,28.02
2023-02-03T20:53:28.664Z,32.25
2023-02-03T20:56:02.570Z,28.48
2023-02-03T20:58:38.105Z,29.17
2023-02-03T21:01:19.937Z,28.75
2023-02-03T21:04:08.544Z,32.97
2023-02-03T21:06:37.665Z,28.70
2023-02-03T21:09:19.515Z,27.98
2023-02-03T21:11:48.692Z,32.95
2023-02-03T21:14:31.317Z,29.92
2023-02-03T21:17:00.650Z,31.55
2023-02-03T21:19:34.684Z,32.90
2023-02-03T21:22:24.867Z,33.28
2023-02-03T21:25:00.127Z,32.28
2023-02-03T21:27:33.718Z,36.85
2023-02-03T21:30:31.804Z,36.10
2023-02-03T21:33:02.369Z,32.75
2023-02-03T21:35:39.981Z,32.40
2023-02-03T21:38:34.018Z,36.20
2023-02-03T21:41:03.414Z,37.90
2023-02-03T21:43:34.057Z,33.88
2023-02-03T21:46:03.641Z,32.38
2023-02-03T21:48:41.647Z,36.30
2023-02-03T21:51:30.526Z,34.63
2023-02-03T21:54:04.177Z,32.78
2023-02-03T21:56:44.188Z,31.67
2023-02-03T21:59:23.719Z,36.20
2023-02-03T22:01:54.097Z,36.38
2023-02-03T22:04:23.311Z,37.38
2023-02-03T22:06:55.058Z,32.20
2023-02-03T22:09:28.640Z,36.03
2023-02-03T22:11:57.809Z,32.03
2023-02-03T22:14:26.895Z,38.20
2023-02-03T22:16:56.019Z,34.05
2023-02-03T22:19:25.171Z,38.80
2023-02-03T22:21:54.258Z,37.67
2023-02-03T22:24:23.391Z,31.65
2023-02-03T22:26:53.710Z,33.22
2023-02-03T22:29:24.066Z,28.50
2023-02-03T22:31:53.472Z,34.85
2023-02-03T22:34:24.232Z,35.47
2023-02-03T22:36:53.450Z,33.83
2023-02-03T22:39:22.655Z,34.90
2023-02-03T22:41:51.845Z,30.38
2023-02-03T22:44:21.282Z,35.47
2023-02-03T22:46:50.585Z,30.55
2023-02-03T22:49:19.789Z,35.05
2023-02-03T22:51:48.997Z,38.70
2023-02-03T22:54:18.151Z,41.28
2023-02-03T22:56:47.311Z,34.50
2023-02-03T22:59:16.577Z,39.55
2023-02-03T23:01:45.752Z,36.03
2023-02-03T23:04:14.990Z,33.45
2023-02-03T23:06:44.212Z,39.30
2023-02-03T23:09:13.410Z,36.42
2023-02-03T23:11:42.592Z,39.78
2023-02-03T23:14:13.179Z,40.83
2023-02-03T23:16:42.377Z,29.25
2023-02-03T23:19:11.618Z,34.10
2023-02-03T23:21:41.719Z,34.17
2023-02-03T23:24:10.941Z,33.03
2023-02-03T23:26:40.194Z,33.45
2023-02-03T23:29:09.560Z,41.80
2023-02-03T23:31:39.282Z,38.20
2023-02-03T23:34:26.860Z,35.42
2023-02-03T23:36:56.065Z,39.03
2023-02-03T23:39:25.292Z,41.58
2023-02-03T23:41:54.513Z,39.08
2023-02-03T23:44:24.067Z,41.80
2023-02-03T23:46:53.433Z,37.03
2023-02-03T23:49:22.632Z,35.88
2023-02-03T23:51:51.815Z,45.80
2023-02-03T23:54:21.090Z,36.80
2023-02-03T23:56:50.937Z,44.13
2023-02-03T23:59:20.729Z,41.65
